Pleasant Valley, Washington
Current Conditions -  °F | °C
As of 4:53 AM on Saturday 25 Oct 2014 (Local Time) from KBLI Reporting Station
Overcast Overcast  
Wind Chill: 50°   Ceiling: 7500
Heat Index: 50°   Visibility: 10mi
Dew Point: 44°   Wind: 10mph
Humidity: 80%   Direction: 20°NNE
Pressure: 29.55"   Gusts: 20mph
Location:  48.8653°N, 122.636°W
Report Text: KBLI 251153Z AUTO 02009G17KT 10SM BKN075 OVC100 10/07 A2955 RMK AO2 RAE07 PRESFR SLP014 P0000 60018 70018 T01000067 10106 20094 58055
Loading
Personal Weather Stations






























Interactive Weather Map
Tropical Storm Tracking
New forecast layout! Learn more

10-Day Weather Forecast

Advertisements
Track Severe Weather on mobile